• Join FlightAware (Why Join?)
  • Login
  • US Flag 
05:33AM EDT


 

Airport Tracker/Info


-or-


 

Live Flight TrackerFlight Track Log ✈ ASH2792 ✈ 10-May-2013 ✈ KLIT - KCLT

Flight Track Log - Related Links

Times and Time Zones

All times are in EDT time to prevent confusion due to time zone crossing. See the ASH2792 flight status page for this flight to view local times or setup timezone preferences in your user account.

Time Position Orientation Groundspeed Altitude Reporting Facility
EDT Latitude Longitude Course Direction KTS MPH feet Rate Location/Type
12:02PM 34.7114 -92.2544 82° East 173 199 1,100  Level Memphis Center
12:03PM 34.6922 -92.2717 216° Southwest 189 217 2,000 2,040 Climbing Memphis Center
12:04PM 34.6389 -92.2250 144° Southeast 248 285 4,900 2,160 Climbing Memphis Center
12:06PM 34.7872 -91.6934 78° East  Level FlightAware Approximate
12:06PM 34.6556 -92.0789 82° East 302 348 8,400  Level Memphis Center
12:07PM 34.8091 -91.5625 78° East  Level FlightAware Approximate
12:07PM 34.6672 -91.9783 82° East 302 348 10,700  Level Memphis Center
12:08PM 34.8208 -91.4301 82° East  Level FlightAware Approximate
12:08PM 34.6811 -91.8622 82° East 319 367 12,400  Level Memphis Center
12:09PM 34.7078 -91.7264 77° East 357 411 14,900 2,400 Climbing Memphis Center
12:10PM 34.7258 -91.6028 80° East 369 425 17,200 2,100 Climbing Memphis Center
12:11PM 34.7542 -91.4719 75° East 385 443 19,200 1,620 Climbing Memphis Center
12:12PM 34.7739 -91.3533 79° East 392 451 20,500 1,380 Climbing Memphis Center
12:13PM 34.8000 -91.2144 77° East 409 471 22,000 1,380 Climbing Memphis Center
12:14PM 34.8258 -91.0681 78° East 428 493 23,300 1,380 Climbing Memphis Center
12:15PM 34.8539 -90.9189 77° East 444 511 24,800 840 Climbing Memphis Center
12:16PM 34.8794 -90.7697 78° East 452 520 25,000 60 Climbing Memphis Center
12:17PM 34.9069 -90.6181 77° East 452 520 25,000  Level Memphis Center
12:18PM 34.9364 -90.4558 77° East 445 512 25,000  Level Memphis Center
12:19PM 34.9614 -90.3064 78° East 450 518 25,000  Level Memphis Center
12:20PM 34.9864 -90.1619 78° East 450 518 25,000  Level Memphis Center
12:21PM 35.0131 -90.0122 78° East 445 512 25,000  Level Memphis Center
12:22PM 35.0397 -89.8625 78° East 445 512 25,000  Level Memphis Center
12:23PM 35.0661 -89.7278 77° East 450 518 25,000  Level Memphis Center
12:24PM 35.1156 -89.5878 67° East 450 518 25,000  Level Memphis Center
12:25PM 35.1667 -89.4453 66° East 450 518 25,000  Level Memphis Center
12:26PM 35.2178 -89.3047 66° East 450 518 25,000  Level Memphis Center
12:27PM 35.2686 -89.1642 66° East 450 518 25,000  Level Memphis Center
12:28PM 35.3253 -89.0083 66° East 450 518 25,000  Level Memphis Center
12:29PM 35.3739 -88.8750 66° East 440 506 25,000  Level Memphis Center
12:30PM 35.4203 -88.7367 68° East 435 501 25,000  Level Memphis Center
12:31PM 35.4706 -88.5981 66° East 435 501 25,000  Level Memphis Center
12:32PM 35.5206 -88.4617 66° East 435 501 25,000  Level Memphis Center
12:33PM 35.5706 -88.3228 66° East 441 507 25,000  Level Memphis Center
12:34PM 35.6203 -88.1836 66° East 441 507 25,000  Level Memphis Center
12:35PM 35.6678 -88.0469 67° East 435 501 25,000  Level Memphis Center
12:36PM 35.7172 -87.9075 66° East 435 501 25,000  Level Memphis Center
12:37PM 35.7667 -87.7731 66° East 441 507 25,000  Level Memphis Center
12:38PM 35.8139 -87.6333 67° East 436 502 25,000  Level Memphis Center
12:39PM 35.8608 -87.4961 67° East 436 502 25,000  Level Memphis Center
12:40PM 35.9094 -87.3508 68° East 442 509 25,000  Level Memphis Center
12:41PM 35.9119 -87.1969 89° East 442 509 25,000  Level Memphis Center
12:42PM 35.9139 -87.0353 89° East 457 526 25,000  Level Memphis Center
12:43PM 35.9133 -86.8689 90° East 479 551 25,000  Level Memphis Center
12:44PM 35.9169 -86.7019 88° East 485 558 25,000  Level Memphis Center
12:45PM 35.9181 -86.5328 89° East 485 558 25,000  Level Memphis Center
12:46PM 35.9178 -86.3894 90° East 480 552 25,000  Level Memphis Center
12:47PM 35.9167 -86.2253 90° East 474 545 25,000  Level Memphis Center
12:49PM 35.9189 -85.9053 89° East 481 554 25,000  Level Atlanta Center
12:50PM 35.9192 -85.7489 90° East 464 534 25,000  Level Atlanta Center
12:51PM 35.9192 -85.5925 90° East 454 522 25,000  Level Atlanta Center
12:52PM 35.9189 -85.4386 90° East 454 522 25,000  Level Atlanta Center
12:53PM 35.9186 -85.2797 90° East 459 528 25,000  Level Atlanta Center
12:54PM 35.9181 -85.1233 90° East 459 528 25,000  Level Atlanta Center
12:55PM 35.9150 -84.9644 91° East 459 528 25,000  Level Atlanta Center
12:56PM 35.9161 -84.7900 89° East 459 528 25,000  Level Atlanta Center
12:57PM 35.9150 -84.6336 90° East 459 528 25,000  Level Atlanta Center
12:58PM 35.9114 -84.4797 92° East 459 528 25,000  Level Atlanta Center
12:59PM 35.9100 -84.3183 91° East 459 528 25,000  Level Atlanta Center
01:00PM 35.9081 -84.1619 91° East 459 528 25,000  Level Atlanta Center
01:01PM 35.9061 -84.0056 91° East 459 528 25,000  Level Atlanta Center
01:02PM 35.9039 -83.8464 91° East 459 528 25,000  Level Atlanta Center
01:03PM 35.9014 -83.6875 91° East 459 528 25,000  Level Atlanta Center
01:04PM 35.8967 -83.5286 92° East 459 528 25,000  Level Atlanta Center
01:05PM 35.8936 -83.3697 91° East 459 528 25,000  Level Atlanta Center
01:06PM 35.8906 -83.2108 91° East 459 528 25,000  Level Atlanta Center
01:07PM 35.8853 -83.0469 92° East 459 528 25,000  Level Atlanta Center
01:08PM 35.8819 -82.8881 91° East 459 528 25,000 -240 Level Atlanta Center
01:09PM 35.8781 -82.7292 92° East 459 528 24,600 -540 Descending Atlanta Center
01:10PM 35.8742 -82.5653 92° East 459 528 24,000 -600 Descending Atlanta Center
01:11PM 35.8700 -82.4039 92° East 470 541 23,400 -840 Descending Atlanta Center
01:12PM 35.8636 -82.2478 93° East 464 534 22,400 -1,020 Descending Atlanta Center
01:13PM 35.8575 -82.1069 93° East 424 488 21,400 -1,500 Descending Atlanta Center
01:14PM 35.7992 -81.9853 121° Southeast 403 464 19,400 -2,100 Descending Atlanta Center
01:15PM 35.7494 -81.8792 120° Southeast 403 464 17,300 -2,340 Descending Atlanta Center
01:16PM 35.6950 -81.7656 121° Southeast 395 455 14,800 -2,700 Descending Atlanta Center
01:16PM 35.6692 -81.7178 124° Southeast 353 406 13,600 -2,220 Descending Atlanta Center
01:17PM 35.6453 -81.6672 120° Southeast 358 412 12,600 -1,980 Descending Atlanta Center
01:17PM 35.6236 -81.6244 122° Southeast 314 361 11,600 -1,620 Descending Atlanta Center
01:18PM 35.5997 -81.5792 123° Southeast 319 367 11,000 -540 Descending Atlanta Center
01:18PM 35.5675 -81.5317 130° Southeast 287 330 11,000 -120 Level Atlanta Center
01:19PM 35.5625 -81.4936 99° East 292 336 10,900 -840 Descending Atlanta Center
01:19PM 35.5633 -81.4272 89° East 303 349 10,200 -900 Descending Atlanta Center
01:20PM 35.5644 -81.3889 88° East 281 323 10,000 -720 Descending Atlanta Center
01:20PM 35.5653 -81.3250 89° East 299 344 9,500 -900 Descending Atlanta Center
01:21PM 35.5644 -81.2867 92° East 293 337 9,100 -1,380 Descending Atlanta Center
01:21PM 35.5672 -81.2253 87° East 291 335 8,100 -1,320 Descending Atlanta Center
01:22PM 35.5664 -81.1897 92° East 293 337 7,800 -1,500 Descending Atlanta Center
01:22PM 35.5692 -81.1333 87° East 246 283 6,600 -1,740 Descending Atlanta Center
01:23PM 35.5683 -81.1028 92° East 267 307 6,100 -1,440 Descending Atlanta Center
01:23PM 35.5717 -81.0617 84° East 245 282 5,300 -1,500 Descending Atlanta Center
01:24PM 35.5644 -81.0236 103° East 248 285 4,600 -1,320 Descending Atlanta Center
01:24PM 35.5303 -80.9969 148° Southeast 227 261 4,000 -600 Descending Atlanta Center
01:25PM 35.5094 -80.9900 165° South 202 232 4,000  Level Atlanta Center
01:25PM 35.4717 -80.9889 179° South 209 241 4,000  Level Atlanta Center
01:26PM 35.4197 -80.9908 182° South 178 205 4,000 -240 Level Atlanta Center
01:27PM 35.3736 -80.9847 174° South 168 193 3,600 -720 Descending Atlanta Center
01:28PM 35.3233 -80.9792 175° South 166 191 2,600 -1,020 Descending Atlanta Center